createdAt,value
2019-02-21T00:02:26.387Z,7.77
2019-02-21T00:04:55.899Z,7.53
2019-02-21T00:07:25.443Z,8.33
2019-02-21T00:09:55.454Z,8.00
2019-02-21T00:12:25.133Z,7.63
2019-02-21T00:14:54.630Z,8.63
2019-02-21T00:17:24.157Z,7.43
2019-02-21T00:19:53.647Z,7.93
2019-02-21T00:22:23.184Z,7.50
2019-02-21T00:24:52.694Z,7.67
2019-02-21T00:27:22.246Z,7.90
2019-02-21T00:29:51.752Z,8.80
2019-02-21T00:32:21.251Z,8.90
2019-02-21T00:34:50.769Z,8.20
2019-02-21T00:37:20.283Z,8.30
2019-02-21T00:39:49.790Z,7.83
2019-02-21T00:42:19.295Z,7.90
2019-02-21T00:44:48.827Z,7.40
2019-02-21T00:47:18.347Z,7.17
2019-02-21T00:49:47.839Z,7.53
2019-02-21T00:52:17.366Z,7.50
2019-02-21T00:54:46.866Z,7.67
2019-02-21T00:57:16.752Z,7.00
2019-02-21T00:59:46.268Z,7.50
2019-02-21T01:02:16.002Z,7.77
2019-02-21T01:04:45.502Z,7.43
2019-02-21T01:07:15.175Z,6.77
2019-02-21T01:09:44.696Z,6.43
2019-02-21T01:12:14.199Z,6.70
2019-02-21T01:14:43.725Z,7.23
2019-02-21T01:17:13.228Z,7.67
2019-02-21T01:19:42.990Z,7.77
2019-02-21T01:22:12.506Z,6.67
2019-02-21T01:24:42.029Z,7.50
2019-02-21T01:27:11.537Z,7.17
2019-02-21T01:29:41.043Z,7.87
2019-02-21T01:32:10.971Z,7.10
2019-02-21T01:34:40.483Z,6.97
2019-02-21T01:37:09.988Z,6.87
2019-02-21T01:39:39.505Z,7.10
2019-02-21T01:42:09.014Z,7.97
2019-02-21T01:44:38.531Z,6.87
2019-02-21T01:47:08.108Z,7.30
2019-02-21T01:49:37.639Z,7.43
2019-02-21T01:52:07.136Z,7.30
2019-02-21T01:54:36.641Z,7.30
2019-02-21T01:57:06.158Z,7.20
2019-02-21T01:59:35.665Z,7.00
2019-02-21T02:02:05.177Z,7.03
2019-02-21T02:04:34.675Z,7.70
2019-02-21T02:07:04.462Z,6.97
2019-02-21T02:09:33.979Z,7.50
2019-02-21T02:12:03.482Z,7.57
2019-02-21T02:14:33.006Z,7.90
2019-02-21T02:17:02.511Z,6.90
2019-02-21T02:19:32.029Z,7.23
2019-02-21T02:22:01.868Z,8.27
2019-02-21T02:24:31.460Z,8.50
2019-02-21T02:27:00.969Z,7.60
2019-02-21T02:29:30.466Z,8.20
2019-02-21T02:32:00.025Z,8.67
2019-02-21T02:34:29.530Z,9.90
2019-02-21T02:36:59.057Z,8.87
2019-02-21T02:39:28.552Z,8.53
2019-02-21T02:41:58.066Z,9.50
2019-02-21T02:44:27.573Z,9.50
2019-02-21T02:46:57.083Z,10.97
2019-02-21T02:49:26.608Z,11.17
2019-02-21T02:51:56.115Z,11.97
2019-02-21T02:54:25.669Z,11.33
2019-02-21T02:56:55.317Z,10.57
2019-02-21T02:59:24.857Z,10.80
2019-02-21T03:01:54.361Z,10.80
2019-02-21T03:04:24.193Z,10.83
2019-02-21T03:06:53.733Z,11.87
2019-02-21T03:09:23.236Z,12.20
2019-02-21T03:11:52.763Z,12.43
2019-02-21T03:14:22.279Z,11.73
2019-02-21T03:16:51.817Z,12.70
2019-02-21T03:19:21.330Z,12.10
2019-02-21T03:21:50.833Z,13.10
2019-02-21T03:24:20.352Z,11.90
2019-02-21T03:26:49.863Z,14.10
2019-02-21T03:29:19.569Z,13.93
2019-02-21T03:31:55.084Z,13.40
2019-02-21T03:34:20.329Z,13.87
2019-02-21T03:36:49.829Z,14.30
2019-02-21T03:39:19.348Z,13.20
2019-02-21T03:41:48.868Z,13.43
2019-02-21T03:44:18.376Z,13.90
2019-02-21T03:46:47.894Z,14.50
2019-02-21T03:49:17.415Z,14.10
2019-02-21T03:51:46.933Z,15.33
2019-02-21T03:54:16.947Z,15.03
2019-02-21T03:56:46.601Z,15.83
2019-02-21T03:59:16.385Z,15.63
2019-02-21T04:01:45.979Z,17.30
2019-02-21T04:04:15.495Z,16.47
2019-02-21T04:06:45.011Z,17.10
2019-02-21T04:09:14.946Z,17.10
2019-02-21T04:11:44.448Z,18.60
2019-02-21T04:14:14.301Z,17.53
2019-02-21T04:16:43.825Z,17.77
2019-02-21T04:19:13.344Z,19.10
2019-02-21T04:21:42.861Z,18.70
2019-02-21T04:24:12.366Z,19.13
2019-02-21T04:26:41.868Z,18.70
2019-02-21T04:29:11.402Z,19.27
2019-02-21T04:31:40.908Z,22.63
2019-02-21T04:34:10.431Z,22.20
2019-02-21T04:36:39.952Z,22.40
2019-02-21T04:39:09.485Z,22.20
2019-02-21T04:41:39.025Z,22.53
2019-02-21T04:44:08.550Z,23.17
2019-02-21T04:46:38.074Z,22.47
2019-02-21T04:49:07.578Z,23.73
2019-02-21T04:51:37.097Z,22.10
2019-02-21T04:54:06.606Z,23.90
2019-02-21T04:56:36.131Z,22.80
2019-02-21T04:59:06.738Z,24.43
2019-02-21T05:01:36.433Z,22.63
2019-02-21T05:04:05.976Z,22.50
2019-02-21T05:06:35.523Z,22.07
2019-02-21T05:09:07.535Z,24.83
2019-02-21T05:11:37.172Z,25.40
2019-02-21T05:14:06.695Z,23.70
2019-02-21T05:16:36.212Z,24.03
2019-02-21T05:19:05.725Z,25.00
2019-02-21T05:21:35.261Z,25.63
2019-02-21T05:24:04.759Z,25.20
2019-02-21T05:26:35.932Z,27.50
2019-02-21T05:29:07.077Z,25.53
2019-02-21T05:31:50.311Z,27.33
2019-02-21T05:34:27.621Z,27.77
2019-02-21T05:36:58.812Z,26.20
2019-02-21T05:39:30.791Z,28.20
2019-02-21T05:42:05.375Z,26.70
2019-02-21T05:44:48.079Z,28.40
2019-02-21T05:47:24.842Z,30.17
2019-02-21T05:50:12.131Z,27.50
2019-02-21T05:52:45.747Z,28.07
2019-02-21T05:55:16.917Z,29.07
2019-02-21T05:57:50.553Z,27.97
2019-02-21T06:00:37.662Z,25.33
2019-02-21T06:03:15.690Z,27.23
2019-02-21T06:05:49.275Z,28.10
2019-02-21T06:08:32.421Z,27.50
2019-02-21T06:11:18.156Z,26.20
2019-02-21T06:13:49.723Z,28.00
2019-02-21T06:16:23.565Z,28.03
2019-02-21T06:19:03.393Z,30.50
2019-02-21T06:21:40.429Z,28.87
2019-02-21T06:24:12.975Z,27.23
2019-02-21T06:26:46.761Z,27.70
2019-02-21T06:29:17.898Z,27.67
2019-02-21T06:31:47.428Z,27.00
2019-02-21T06:34:16.961Z,27.90
2019-02-21T06:36:46.464Z,28.93
2019-02-21T06:39:16.002Z,27.77
2019-02-21T06:41:45.507Z,26.60
2019-02-21T06:44:15.015Z,25.77
2019-02-21T06:46:44.545Z,28.93
2019-02-21T06:49:14.064Z,26.43
2019-02-21T06:51:43.598Z,27.97
2019-02-21T06:54:13.181Z,29.33
2019-02-21T06:56:42.686Z,27.87
2019-02-21T06:59:12.205Z,27.37
2019-02-21T07:01:41.719Z,29.90
2019-02-21T07:04:11.249Z,28.87
2019-02-21T07:06:42.573Z,28.97
2019-02-21T07:09:12.105Z,27.47
2019-02-21T07:11:41.610Z,26.40
2019-02-21T07:14:11.151Z,28.87
2019-02-21T07:16:40.704Z,26.50
2019-02-21T07:19:10.933Z,27.10
2019-02-21T07:21:40.668Z,27.07
2019-02-21T07:24:10.226Z,26.83
2019-02-21T07:26:39.789Z,26.10
2019-02-21T07:29:09.360Z,24.20
2019-02-21T07:31:38.877Z,26.80
2019-02-21T07:34:08.384Z,24.60
2019-02-21T07:36:37.913Z,26.73
2019-02-21T07:39:16.895Z,25.20
2019-02-21T07:41:41.564Z,24.70
2019-02-21T07:44:12.431Z,24.67
2019-02-21T07:46:41.413Z,24.00
2019-02-21T07:49:10.936Z,25.20
2019-02-21T07:51:41.503Z,24.00
2019-02-21T07:54:11.145Z,23.93
2019-02-21T07:56:42.207Z,24.60
2019-02-21T07:59:12.309Z,23.03
2019-02-21T08:01:41.897Z,24.23
2019-02-21T08:04:11.602Z,24.33
2019-02-21T08:06:41.192Z,25.10
2019-02-21T08:09:10.915Z,24.10
2019-02-21T08:11:40.466Z,25.13
2019-02-21T08:14:10.129Z,23.43
2019-02-21T08:16:39.828Z,24.90
2019-02-21T08:19:09.420Z,26.33
2019-02-21T08:21:39.037Z,24.17
2019-02-21T08:24:08.793Z,25.20
2019-02-21T08:26:38.376Z,25.43
2019-02-21T08:29:07.927Z,25.63
2019-02-21T08:31:37.513Z,27.20
2019-02-21T08:34:08.735Z,25.77
2019-02-21T08:36:38.310Z,26.67
2019-02-21T08:39:10.091Z,26.00
2019-02-21T08:41:39.769Z,24.90
2019-02-21T08:44:09.351Z,27.30
2019-02-21T08:46:38.923Z,27.77
2019-02-21T08:49:08.484Z,25.57
2019-02-21T08:51:38.034Z,25.57
2019-02-21T08:54:07.642Z,27.43
2019-02-21T08:56:37.181Z,24.30
2019-02-21T08:59:06.738Z,24.50
2019-02-21T09:01:36.471Z,28.37
2019-02-21T09:04:10.479Z,24.53
2019-02-21T09:06:37.520Z,25.83
2019-02-21T09:09:07.592Z,26.03
2019-02-21T09:11:37.258Z,27.20
2019-02-21T09:14:06.816Z,26.40
2019-02-21T09:16:36.518Z,26.37
2019-02-21T09:19:06.184Z,23.97
2019-02-21T09:21:35.741Z,24.10
2019-02-21T09:24:05.548Z,26.67
2019-02-21T09:26:35.101Z,26.20
2019-02-21T09:29:04.831Z,24.70
2019-02-21T09:31:34.452Z,23.73
2019-02-21T09:34:04.301Z,24.60
2019-02-21T09:36:33.885Z,24.87
2019-02-21T09:39:04.717Z,25.30
2019-02-21T09:41:34.286Z,24.47
2019-02-21T09:44:03.844Z,25.20
2019-02-21T09:46:33.438Z,25.57
2019-02-21T09:49:03.169Z,25.23
2019-02-21T09:51:32.859Z,24.73
2019-02-21T09:54:02.443Z,24.53
2019-02-21T09:56:32.003Z,26.43
2019-02-21T09:59:01.587Z,25.20
2019-02-21T10:01:31.172Z,23.93
2019-02-21T10:04:00.763Z,24.30
2019-02-21T10:06:30.345Z,23.87
2019-02-21T10:08:59.909Z,22.77
2019-02-21T10:11:29.843Z,23.43
2019-02-21T10:13:59.474Z,21.87
2019-02-21T10:16:29.488Z,23.20
2019-02-21T10:18:59.073Z,24.43
2019-02-21T10:21:28.634Z,23.13
2019-02-21T10:23:58.230Z,23.40
2019-02-21T10:26:27.818Z,21.63
2019-02-21T10:28:57.402Z,21.53
2019-02-21T10:31:27.037Z,23.00
2019-02-21T10:33:56.621Z,21.43
2019-02-21T10:36:26.259Z,21.10
2019-02-21T10:38:55.830Z,21.40
2019-02-21T10:41:25.408Z,24.13
2019-02-21T10:43:54.968Z,21.87
2019-02-21T10:46:24.646Z,22.17
2019-02-21T10:48:54.214Z,22.60
2019-02-21T10:51:23.816Z,25.10
2019-02-21T10:53:53.384Z,20.13
2019-02-21T10:56:23.008Z,23.40
2019-02-21T10:58:52.665Z,20.77
2019-02-21T11:01:22.226Z,20.30
2019-02-21T11:03:51.881Z,20.33
2019-02-21T11:06:21.441Z,18.97
2019-02-21T11:08:51.660Z,20.60
2019-02-21T11:11:21.224Z,20.00
2019-02-21T11:13:50.789Z,20.10
2019-02-21T11:16:20.391Z,19.30
2019-02-21T11:18:49.945Z,19.47
2019-02-21T11:21:19.549Z,18.57
2019-02-21T11:23:49.125Z,18.50
2019-02-21T11:26:18.688Z,18.30
2019-02-21T11:28:48.273Z,17.40
2019-02-21T11:31:17.852Z,17.37
2019-02-21T11:33:47.432Z,17.37
2019-02-21T11:36:17.017Z,16.40
2019-02-21T11:38:46.619Z,17.10
2019-02-21T11:41:16.273Z,15.40
2019-02-21T11:43:45.842Z,16.03
2019-02-21T11:46:15.538Z,16.27
2019-02-21T11:48:46.642Z,15.87
2019-02-21T11:51:16.234Z,15.50
2019-02-21T11:53:46.132Z,16.80
2019-02-21T11:56:15.928Z,15.70
2019-02-21T11:58:45.686Z,15.37
2019-02-21T12:01:15.250Z,15.10
2019-02-21T12:03:44.847Z,16.43
2019-02-21T12:06:14.435Z,15.47
2019-02-21T12:08:44.029Z,15.10
2019-02-21T12:11:13.653Z,15.33
2019-02-21T12:13:43.223Z,15.67
2019-02-21T12:16:12.804Z,15.73
2019-02-21T12:18:42.453Z,14.77
2019-02-21T12:21:12.114Z,14.27
2019-02-21T12:23:41.720Z,14.40
2019-02-21T12:26:11.487Z,13.70
2019-02-21T12:28:41.061Z,14.67
2019-02-21T12:31:10.625Z,15.97
2019-02-21T12:33:40.225Z,15.10
2019-02-21T12:36:09.852Z,14.97
2019-02-21T12:38:39.458Z,14.17
2019-02-21T12:41:09.397Z,13.57
2019-02-21T12:43:39.072Z,15.00
2019-02-21T12:46:09.019Z,14.03
2019-02-21T12:48:38.600Z,14.60
2019-02-21T12:51:08.188Z,14.47
2019-02-21T12:53:37.763Z,12.50
2019-02-21T12:56:07.353Z,14.40
2019-02-21T12:58:36.944Z,14.53
2019-02-21T13:01:06.533Z,12.30
2019-02-21T13:03:56.147Z,12.43
2019-02-21T13:06:25.736Z,13.07
2019-02-21T13:08:55.317Z,12.77
2019-02-21T13:11:24.965Z,13.00
2019-02-21T13:13:54.534Z,14.07
2019-02-21T13:16:24.100Z,12.73
2019-02-21T13:18:53.691Z,11.70
2019-02-21T13:21:23.256Z,10.37
2019-02-21T13:23:52.847Z,10.00
2019-02-21T13:26:22.408Z,9.53
2019-02-21T13:28:51.987Z,9.63
2019-02-21T13:31:21.555Z,10.50
2019-02-21T13:33:51.133Z,8.90
2019-02-21T13:36:20.703Z,8.17
2019-02-21T13:38:50.271Z,8.30
2019-02-21T13:41:19.850Z,8.17
2019-02-21T13:43:49.414Z,8.73
2019-02-21T13:46:19.003Z,7.70
2019-02-21T13:48:48.558Z,8.43
2019-02-21T13:51:18.130Z,8.23
2019-02-21T13:53:47.705Z,8.87
2019-02-21T13:56:17.294Z,7.43
2019-02-21T13:58:46.893Z,9.03
2019-02-21T14:01:16.461Z,7.87
2019-02-21T14:03:46.123Z,9.03
2019-02-21T14:06:15.756Z,9.00
2019-02-21T14:08:45.346Z,9.63
2019-02-21T14:11:14.930Z,9.73
2019-02-21T14:13:44.525Z,9.00
2019-02-21T14:16:14.117Z,8.30
2019-02-21T14:18:43.692Z,8.37
2019-02-21T14:21:13.267Z,7.87
2019-02-21T14:23:42.829Z,8.63
2019-02-21T14:26:12.397Z,8.30
2019-02-21T14:28:41.983Z,7.83
2019-02-21T14:31:11.532Z,8.90
2019-02-21T14:33:41.302Z,9.50
2019-02-21T14:36:15.551Z,9.43
2019-02-21T14:38:42.274Z,10.40
2019-02-21T14:41:11.829Z,9.93
2019-02-21T14:43:41.383Z,9.33
2019-02-21T14:46:10.975Z,10.30
2019-02-21T14:48:40.539Z,10.23
2019-02-21T14:51:10.127Z,10.43
2019-02-21T14:53:41.400Z,10.23
2019-02-21T14:56:11.012Z,10.00
2019-02-21T14:58:40.603Z,10.90
2019-02-21T15:01:10.399Z,10.87
2019-02-21T15:03:40.002Z,9.80
2019-02-21T15:06:09.556Z,10.20
2019-02-21T15:08:39.148Z,10.70
2019-02-21T15:11:08.724Z,10.90
2019-02-21T15:13:38.284Z,12.70
2019-02-21T15:16:07.874Z,11.53
2019-02-21T15:18:37.445Z,10.77
2019-02-21T15:21:07.038Z,10.80
2019-02-21T15:23:37.131Z,11.07
2019-02-21T15:26:06.932Z,10.50
2019-02-21T15:28:36.712Z,12.33
2019-02-21T15:31:06.259Z,11.20
2019-02-21T15:33:35.815Z,9.80
2019-02-21T15:36:05.459Z,11.57
2019-02-21T15:38:35.057Z,10.60
2019-02-21T15:41:04.679Z,10.37
2019-02-21T15:43:34.244Z,10.80
2019-02-21T15:46:03.858Z,10.43
2019-02-21T15:48:33.407Z,10.67
2019-02-21T15:51:02.994Z,11.63
2019-02-21T15:53:32.574Z,11.17
2019-02-21T15:56:02.192Z,11.20
2019-02-21T15:58:31.778Z,10.67
2019-02-21T16:01:01.344Z,10.87
2019-02-21T16:03:30.933Z,11.33
2019-02-21T16:06:00.497Z,11.37
2019-02-21T16:08:30.137Z,11.20
2019-02-21T16:10:59.717Z,11.43
2019-02-21T16:13:29.458Z,11.30
2019-02-21T16:15:59.116Z,11.60
2019-02-21T16:18:28.684Z,12.57
2019-02-21T16:20:58.323Z,10.43
2019-02-21T16:23:27.924Z,10.83
2019-02-21T16:25:57.513Z,11.03
2019-02-21T16:28:27.076Z,12.10
2019-02-21T16:30:56.674Z,10.97
2019-02-21T16:33:26.239Z,12.17
2019-02-21T16:35:55.805Z,10.30
2019-02-21T16:38:25.392Z,10.00
2019-02-21T16:40:54.960Z,10.87
2019-02-21T16:43:24.559Z,11.43
2019-02-21T16:45:54.261Z,10.10
2019-02-21T16:48:23.919Z,11.37
2019-02-21T16:50:53.484Z,9.90
2019-02-21T16:53:23.062Z,9.87
2019-02-21T16:55:52.658Z,10.17
2019-02-21T16:58:22.218Z,10.50
2019-02-21T17:00:56.534Z,11.33
2019-02-21T17:03:23.174Z,11.37
2019-02-21T17:05:52.859Z,10.70
2019-02-21T17:08:22.432Z,10.73
2019-02-21T17:10:51.990Z,11.40
2019-02-21T17:13:21.585Z,10.00
2019-02-21T17:15:51.150Z,11.50
2019-02-21T17:18:20.731Z,10.40
2019-02-21T17:20:50.296Z,11.27
2019-02-21T17:23:22.739Z,11.00
2019-02-21T17:25:51.258Z,11.83
2019-02-21T17:28:20.882Z,10.73
2019-02-21T17:30:50.547Z,10.00
2019-02-21T17:33:20.120Z,12.37
2019-02-21T17:35:49.690Z,11.10
2019-02-21T17:38:19.261Z,11.40
2019-02-21T17:40:48.907Z,11.27
2019-02-21T17:43:18.751Z,9.97
2019-02-21T17:45:48.320Z,11.33
2019-02-21T17:48:17.901Z,11.57
2019-02-21T17:50:47.458Z,11.17
2019-02-21T17:53:17.043Z,12.27
2019-02-21T17:55:46.610Z,11.27
2019-02-21T17:58:17.286Z,12.43
2019-02-21T18:00:46.958Z,12.10
2019-02-21T18:03:16.530Z,10.97
2019-02-21T18:05:46.199Z,11.67
2019-02-21T18:08:15.788Z,13.40
2019-02-21T18:10:45.728Z,14.33
2019-02-21T18:13:15.293Z,13.63
2019-02-21T18:15:44.857Z,15.30
2019-02-21T18:18:14.512Z,15.53
2019-02-21T18:20:44.078Z,15.90
2019-02-21T18:23:14.065Z,16.50
2019-02-21T18:25:48.350Z,16.13
2019-02-21T18:28:20.327Z,15.67
2019-02-21T18:30:49.918Z,16.50
2019-02-21T18:33:19.555Z,17.57
2019-02-21T18:35:49.143Z,17.20
2019-02-21T18:38:18.702Z,17.20
2019-02-21T18:40:48.274Z,19.63
2019-02-21T18:43:17.860Z,19.83
2019-02-21T18:45:47.432Z,20.43
2019-02-21T18:48:17.108Z,20.83
2019-02-21T18:50:46.667Z,21.70
2019-02-21T18:53:16.225Z,22.67
2019-02-21T18:55:45.807Z,22.83
2019-02-21T18:58:15.379Z,23.60
2019-02-21T19:00:45.146Z,23.80
2019-02-21T19:03:14.706Z,24.33
2019-02-21T19:05:44.270Z,24.57
2019-02-21T19:08:13.845Z,23.43
2019-02-21T19:10:43.415Z,24.70
2019-02-21T19:13:13.007Z,25.47
2019-02-21T19:15:42.564Z,24.47
2019-02-21T19:18:12.160Z,27.07
2019-02-21T19:20:41.782Z,24.87
2019-02-21T19:23:11.493Z,30.60
2019-02-21T19:25:41.133Z,29.50
2019-02-21T19:28:10.766Z,27.40
2019-02-21T19:30:57.757Z,27.00
2019-02-21T19:33:27.458Z,27.57
2019-02-21T19:35:57.034Z,26.40
2019-02-21T19:38:26.962Z,30.17
2019-02-21T19:40:56.599Z,27.90
2019-02-21T19:43:26.178Z,27.57
2019-02-21T19:45:55.746Z,28.17
2019-02-21T19:48:25.363Z,29.60
2019-02-21T19:50:54.917Z,30.80
2019-02-21T19:53:24.478Z,30.20
2019-02-21T19:55:54.198Z,30.47
2019-02-21T19:58:24.899Z,28.93
2019-02-21T20:00:54.805Z,31.90
2019-02-21T20:03:24.456Z,31.30
2019-02-21T20:05:54.017Z,31.90
2019-02-21T20:08:24.017Z,32.90
2019-02-21T20:10:53.715Z,33.70
2019-02-21T20:13:23.606Z,30.97
2019-02-21T20:15:53.409Z,33.77
2019-02-21T20:18:23.210Z,32.90
2019-02-21T20:20:52.880Z,35.00
2019-02-21T20:23:22.441Z,34.00
2019-02-21T20:25:52.000Z,34.07
2019-02-21T20:28:21.698Z,35.73
2019-02-21T20:30:51.258Z,35.07
2019-02-21T20:33:20.812Z,35.30
2019-02-21T20:35:50.612Z,36.30
2019-02-21T20:38:20.162Z,35.47
2019-02-21T20:40:49.726Z,36.30
2019-02-21T20:43:19.319Z,36.87
2019-02-21T20:45:52.936Z,33.80
2019-02-21T20:48:20.171Z,38.37
2019-02-21T20:50:56.968Z,42.53
2019-02-21T20:53:21.045Z,36.00
2019-02-21T20:55:50.866Z,35.30
2019-02-21T20:58:20.429Z,37.30
2019-02-21T21:00:50.057Z,38.80
2019-02-21T21:03:19.701Z,35.50
2019-02-21T21:05:49.265Z,39.63
2019-02-21T21:08:21.088Z,33.47
2019-02-21T21:10:50.185Z,34.80
2019-02-21T21:13:19.734Z,36.07
2019-02-21T21:15:49.776Z,34.07
2019-02-21T21:18:19.358Z,32.93
2019-02-21T21:20:48.908Z,33.87
2019-02-21T21:23:18.600Z,34.33
2019-02-21T21:25:48.162Z,34.43
2019-02-21T21:28:17.790Z,34.00
2019-02-21T21:30:47.437Z,34.10
2019-02-21T21:33:16.997Z,34.30
2019-02-21T21:35:46.550Z,39.50
2019-02-21T21:38:23.747Z,40.00
2019-02-21T21:40:47.429Z,43.70
2019-02-21T21:43:16.985Z,39.40
2019-02-21T21:45:46.557Z,42.87
2019-02-21T21:48:16.196Z,35.90
2019-02-21T21:50:45.749Z,43.83
2019-02-21T21:53:15.423Z,41.50
2019-02-21T21:55:44.977Z,48.07
2019-02-21T21:58:14.540Z,39.70
2019-02-21T22:00:44.325Z,36.23
2019-02-21T22:03:13.950Z,36.57
2019-02-21T22:05:43.508Z,35.43
2019-02-21T22:08:13.278Z,33.27
2019-02-21T22:10:42.855Z,33.93
2019-02-21T22:13:12.588Z,30.90
2019-02-21T22:15:42.262Z,34.70
2019-02-21T22:18:11.829Z,34.17
2019-02-21T22:20:41.402Z,33.20
2019-02-21T22:23:11.008Z,34.17
2019-02-21T22:25:40.539Z,34.00
2019-02-21T22:28:10.118Z,33.90
2019-02-21T22:30:39.677Z,39.00
2019-02-21T22:33:09.348Z,42.50
2019-02-21T22:35:39.037Z,34.33
2019-02-21T22:38:08.620Z,29.90
2019-02-21T22:40:38.266Z,28.60
2019-02-21T22:43:07.815Z,30.67
2019-02-21T22:45:37.407Z,30.43
2019-02-21T22:48:06.962Z,30.40
2019-02-21T22:50:36.529Z,30.57
2019-02-21T22:53:06.117Z,29.17
2019-02-21T22:55:35.739Z,29.40
2019-02-21T22:58:05.325Z,27.30
2019-02-21T23:00:54.443Z,26.03
2019-02-21T23:03:28.382Z,25.30
2019-02-21T23:06:35.787Z,25.90
2019-02-21T23:09:09.302Z,26.50
2019-02-21T23:11:38.936Z,25.07
2019-02-21T23:14:08.722Z,22.30
2019-02-21T23:16:38.442Z,24.30
2019-02-21T23:19:08.057Z,23.47
2019-02-21T23:21:37.641Z,23.27
2019-02-21T23:24:07.526Z,23.50
2019-02-21T23:26:37.089Z,22.00
2019-02-21T23:29:06.783Z,19.97
2019-02-21T23:31:36.353Z,21.03
2019-02-21T23:34:07.637Z,20.47
2019-02-21T23:36:37.344Z,20.83
2019-02-21T23:39:07.455Z,20.77
2019-02-21T23:41:37.012Z,20.47
2019-02-21T23:44:06.574Z,20.70
2019-02-21T23:46:36.290Z,20.23
2019-02-21T23:49:05.935Z,19.87
2019-02-21T23:51:35.509Z,20.10
2019-02-21T23:54:05.061Z,18.60
2019-02-21T23:56:34.718Z,17.70
2019-02-21T23:59:04.345Z,18.50
